createdAt,value
2022-10-24T00:01:13.890Z,98675.78
2022-10-24T00:03:41.031Z,98667.09
2022-10-24T00:06:10.089Z,98668.16
2022-10-24T00:08:38.048Z,98668.97
2022-10-24T00:11:13.375Z,98666.50
2022-10-24T00:13:40.464Z,98659.47
2022-10-24T00:16:07.873Z,98658.88
2022-10-24T00:18:35.080Z,98654.75
2022-10-24T00:21:01.900Z,98658.44
2022-10-24T00:23:30.213Z,98650.59
2022-10-24T00:26:01.593Z,98644.63
2022-10-24T00:28:29.433Z,98647.50
2022-10-24T00:30:56.745Z,98634.69
2022-10-24T00:33:24.097Z,98631.19
2022-10-24T00:35:50.747Z,98630.78
2022-10-24T00:38:17.421Z,98630.38
2022-10-24T00:40:44.505Z,98628.72
2022-10-24T00:43:25.936Z,98627.06
2022-10-24T00:46:00.220Z,98621.72
2022-10-24T00:48:46.899Z,98632.22
2022-10-24T00:51:29.424Z,98623.16
2022-10-24T00:54:10.122Z,98620.06
2022-10-24T00:56:41.529Z,98612.22
2022-10-24T00:59:10.348Z,98616.53
2022-10-24T01:01:38.587Z,98605.19
2022-10-24T01:04:06.900Z,98600.66
2022-10-24T01:06:57.797Z,98599.41
2022-10-24T01:09:55.172Z,98608.47
2022-10-24T01:12:37.013Z,98599.00
2022-10-24T01:15:13.748Z,98593.63
2022-10-24T01:17:54.042Z,98594.06
2022-10-24T01:20:54.920Z,98591.38
2022-10-24T01:23:42.899Z,98587.03
2022-10-24T01:26:15.305Z,98581.28
2022-10-24T01:29:08.121Z,98575.66
2022-10-24T01:31:45.739Z,98575.47
2022-10-24T01:34:26.537Z,98572.19
2022-10-24T01:37:05.564Z,98571.97
2022-10-24T01:39:38.240Z,98563.31
2022-10-24T01:42:07.581Z,98566.81
2022-10-24T01:44:41.086Z,98564.94
2022-10-24T01:47:51.144Z,98559.59
2022-10-24T01:50:22.787Z,98554.84
2022-10-24T01:52:51.022Z,98551.53
2022-10-24T01:55:17.834Z,98551.53
2022-10-24T01:57:44.561Z,98553.19
2022-10-24T02:00:18.323Z,98551.53
2022-10-24T02:03:38.803Z,98540.84
2022-10-24T02:08:56.553Z,98537.72
2022-10-24T02:11:23.424Z,98545.78
2022-10-24T02:14:09.858Z,98531.31
2022-10-24T02:16:36.735Z,98527.41
2022-10-24T02:19:04.183Z,98531.75
2022-10-24T02:21:45.894Z,98527.41
2022-10-24T02:24:18.513Z,98519.97
2022-10-24T02:26:58.210Z,98516.88
2022-10-24T02:29:44.602Z,98515.22
2022-10-24T02:32:19.942Z,98511.13
2022-10-24T02:34:47.873Z,98509.06
2022-10-24T02:37:17.429Z,98502.84
2022-10-24T02:39:47.317Z,98508.22
2022-10-24T02:42:15.813Z,98506.16
2022-10-24T02:44:47.079Z,98507.16
2022-10-24T02:47:15.229Z,98498.50
2022-10-24T02:49:43.223Z,98498.31
2022-10-24T02:52:10.403Z,98503.06
2022-10-24T02:54:37.142Z,98492.13
2022-10-24T02:57:04.743Z,98492.13
2022-10-24T02:59:31.702Z,98494.19
2022-10-24T03:01:58.429Z,98487.78
2022-10-24T03:04:25.330Z,98476.03
2022-10-24T03:06:53.396Z,98478.09
2022-10-24T03:09:20.342Z,98473.56
2022-10-24T03:11:47.251Z,98469.44
2022-10-24T03:14:13.995Z,98475.41
2022-10-24T03:16:40.789Z,98475.41
2022-10-24T03:19:07.539Z,98465.72
2022-10-24T03:21:34.264Z,98459.34
2022-10-24T03:24:00.999Z,98462.84
2022-10-24T03:26:27.795Z,98461.19
2022-10-24T03:28:54.436Z,98452.31
2022-10-24T03:31:21.256Z,98452.53
2022-10-24T03:33:47.901Z,98450.66
2022-10-24T03:36:14.659Z,98449.63
2022-10-24T03:38:41.409Z,98453.16
2022-10-24T03:41:08.151Z,98450.47
2022-10-24T03:43:34.863Z,98450.66
2022-10-24T03:46:01.740Z,98443.44
2022-10-24T03:48:28.495Z,98446.13
2022-10-24T03:50:55.356Z,98453.34
2022-10-24T03:53:22.001Z,98447.78
2022-10-24T03:55:51.671Z,98445.91
2022-10-24T03:58:18.429Z,98451.91
2022-10-24T04:00:45.279Z,98445.91
2022-10-24T04:03:11.970Z,98440.34
2022-10-24T04:08:11.646Z,98442.19
2022-10-24T04:10:38.375Z,98437.88
2022-10-24T04:13:05.068Z,98427.75
2022-10-24T04:15:31.852Z,98425.28
2022-10-24T04:17:58.534Z,98424.25
2022-10-24T04:20:25.659Z,98418.91
2022-10-24T04:22:52.397Z,98422.00
2022-10-24T04:25:19.249Z,98415.97
2022-10-24T04:27:46.428Z,98426.94
2022-10-24T04:30:16.468Z,98426.72
2022-10-24T04:32:44.840Z,98421.16
2022-10-24T04:35:12.343Z,98422.00
2022-10-24T04:37:39.059Z,98426.09
2022-10-24T04:40:06.614Z,98427.75
2022-10-24T04:42:33.304Z,98432.31
2022-10-24T04:45:00.067Z,98432.31
2022-10-24T04:47:27.225Z,98426.72
2022-10-24T04:49:53.926Z,98425.91
2022-10-24T04:52:20.612Z,98414.16
2022-10-24T04:54:47.357Z,98417.84
2022-10-24T04:57:14.035Z,98420.97
2022-10-24T04:59:40.797Z,98422.00
2022-10-24T05:02:07.503Z,98414.97
2022-10-24T05:04:34.355Z,98412.06
2022-10-24T05:07:01.653Z,98420.72
2022-10-24T05:09:28.355Z,98415.81
2022-10-24T05:11:56.561Z,98415.00
2022-10-24T05:14:24.349Z,98415.44
2022-10-24T05:16:51.193Z,98420.56
2022-10-24T05:19:18.256Z,98418.69
2022-10-24T05:21:45.015Z,98416.00
2022-10-24T05:24:11.910Z,98415.03
2022-10-24T05:26:38.636Z,98416.25
2022-10-24T05:29:05.335Z,98416.22
2022-10-24T05:34:03.926Z,98412.09
2022-10-24T05:36:30.610Z,98404.09
2022-10-24T05:38:57.272Z,98410.25
2022-10-24T05:41:23.975Z,98405.78
2022-10-24T05:43:50.720Z,98402.69
2022-10-24T05:46:17.384Z,98399.41
2022-10-24T05:48:44.105Z,98402.09
2022-10-24T05:51:11.121Z,98405.16
2022-10-24T05:53:37.958Z,98410.13
2022-10-24T05:56:06.124Z,98413.44
2022-10-24T05:58:33.086Z,98409.09
2022-10-24T06:00:59.848Z,98408.88
2022-10-24T06:03:26.767Z,98410.34
2022-10-24T06:05:53.416Z,98399.41
2022-10-24T06:08:20.156Z,98401.22
2022-10-24T06:10:48.966Z,98398.13
2022-10-24T06:13:16.222Z,98401.41
2022-10-24T06:15:44.194Z,98399.53
2022-10-24T06:18:11.112Z,98400.38
2022-10-24T06:20:38.490Z,98390.91
2022-10-24T06:23:06.769Z,98389.69
2022-10-24T06:25:33.498Z,98388.66
2022-10-24T06:28:00.638Z,98387.44
2022-10-24T06:30:27.554Z,98377.16
2022-10-24T06:32:54.310Z,98382.09
2022-10-24T06:35:21.089Z,98385.44
2022-10-24T06:37:48.494Z,98379.63
2022-10-24T06:40:16.944Z,98385.81
2022-10-24T06:42:43.823Z,98389.94
2022-10-24T06:45:10.974Z,98396.31
2022-10-24T06:47:37.861Z,98395.31
2022-10-24T06:50:05.494Z,98391.59
2022-10-24T06:52:32.253Z,98394.91
2022-10-24T06:54:58.889Z,98396.59
2022-10-24T06:57:25.757Z,98403.22
2022-10-24T06:59:53.429Z,98404.00
2022-10-24T07:02:20.261Z,98405.25
2022-10-24T07:04:47.229Z,98398.25
2022-10-24T07:07:19.437Z,98401.53
2022-10-24T07:09:53.180Z,98402.56
2022-10-24T07:14:52.634Z,98412.22
2022-10-24T07:17:20.363Z,98414.31
2022-10-24T07:19:53.886Z,98407.47
2022-10-24T07:22:20.652Z,98411.84
2022-10-24T07:24:55.970Z,98412.44
2022-10-24T07:27:23.511Z,98411.19
2022-10-24T07:29:51.587Z,98408.13
2022-10-24T07:32:19.564Z,98415.69
2022-10-24T07:34:47.819Z,98414.69
2022-10-24T07:37:15.651Z,98413.06
2022-10-24T07:39:43.404Z,98419.25
2022-10-24T07:42:12.320Z,98417.38
2022-10-24T07:44:39.139Z,98414.94
2022-10-24T07:47:07.610Z,98418.00
2022-10-24T07:49:34.321Z,98423.78
2022-10-24T07:52:01.072Z,98419.69
2022-10-24T07:54:30.673Z,98423.78
2022-10-24T07:56:59.819Z,98419.88
2022-10-24T07:59:41.363Z,98416.56
2022-10-24T08:02:11.832Z,98429.53
2022-10-24T08:04:38.821Z,98425.47
2022-10-24T08:07:11.637Z,98433.50
2022-10-24T08:09:40.234Z,98437.63
2022-10-24T08:12:06.979Z,98431.84
2022-10-24T08:14:33.764Z,98437.81
2022-10-24T08:17:00.451Z,98435.56
2022-10-24T08:19:27.172Z,98438.44
2022-10-24T08:21:53.935Z,98434.75
2022-10-24T08:24:20.640Z,98434.13
2022-10-24T08:26:47.471Z,98435.75
2022-10-24T08:29:15.221Z,98435.72
2022-10-24T08:31:42.033Z,98436.56
2022-10-24T08:34:11.757Z,98437.97
2022-10-24T08:36:38.468Z,98442.53
2022-10-24T08:39:05.490Z,98444.59
2022-10-24T08:41:51.450Z,98446.41
2022-10-24T08:44:28.634Z,98448.06
2022-10-24T08:47:13.247Z,98450.97
2022-10-24T08:49:47.931Z,98447.06
2022-10-24T08:52:44.970Z,98445.16
2022-10-24T08:55:48.262Z,98449.66
2022-10-24T08:58:05.390Z,98453.78
2022-10-24T09:00:39.321Z,98452.31
2022-10-24T09:03:55.031Z,98445.09
2022-10-24T09:06:20.269Z,98438.06
2022-10-24T09:08:53.975Z,98445.84
2022-10-24T09:11:43.561Z,98451.59
2022-10-24T09:14:21.592Z,98461.94
2022-10-24T09:17:14.752Z,98466.09
2022-10-24T09:19:46.973Z,98468.00
2022-10-24T09:22:13.960Z,98465.72
2022-10-24T09:25:12.385Z,98469.41
2022-10-24T09:27:41.034Z,98474.59
2022-10-24T09:30:17.526Z,98476.25
2022-10-24T09:32:44.764Z,98468.44
2022-10-24T09:35:26.246Z,98472.56
2022-10-24T09:37:58.740Z,98466.63
2022-10-24T09:40:27.121Z,98472.78
2022-10-24T09:43:11.396Z,98479.19
2022-10-24T09:45:41.860Z,98472.38
2022-10-24T09:48:34.135Z,98473.22
2022-10-24T09:51:02.169Z,98473.63
2022-10-24T09:53:39.601Z,98475.50
2022-10-24T09:56:14.778Z,98471.94
2022-10-24T09:58:42.161Z,98468.66
2022-10-24T10:01:15.047Z,98483.50
2022-10-24T10:03:43.031Z,98485.19
2022-10-24T10:06:19.032Z,98489.31
2022-10-24T10:08:55.767Z,98492.16
2022-10-24T10:11:30.830Z,98490.53
2022-10-24T10:14:01.394Z,98488.88
2022-10-24T10:16:31.030Z,98490.50
2022-10-24T10:19:18.990Z,98488.63
2022-10-24T10:22:00.316Z,98489.25
2022-10-24T10:24:37.390Z,98497.91
2022-10-24T10:27:24.857Z,98498.56
2022-10-24T10:30:16.213Z,98500.59
2022-10-24T10:33:20.301Z,98507.41
2022-10-24T10:36:11.173Z,98504.13
2022-10-24T10:38:49.515Z,98516.06
2022-10-24T10:41:31.302Z,98495.63
2022-10-24T10:44:22.521Z,98498.91
2022-10-24T10:46:59.032Z,98498.72
2022-10-24T10:49:31.935Z,98497.47
2022-10-24T10:52:06.398Z,98501.63
2022-10-24T10:54:41.095Z,98503.91
2022-10-24T10:57:19.593Z,98497.06
2022-10-24T10:59:46.436Z,98499.13
2022-10-24T11:02:39.708Z,98502.84
2022-10-24T11:05:34.570Z,98504.91
2022-10-24T11:08:25.534Z,98509.25
2022-10-24T11:11:02.744Z,98507.81
2022-10-24T11:13:51.733Z,98520.38
2022-10-24T11:16:24.107Z,98509.88
2022-10-24T11:18:52.829Z,98507.19
2022-10-24T11:21:22.741Z,98513.16
2022-10-24T11:23:58.099Z,98516.84
2022-10-24T11:26:48.212Z,98515.38
2022-10-24T11:29:38.074Z,98518.88
2022-10-24T11:32:26.899Z,98514.38
2022-10-24T11:34:59.654Z,98516.22
2022-10-24T11:37:42.431Z,98511.03
2022-10-24T11:40:35.517Z,98512.03
2022-10-24T11:43:24.025Z,98514.72
2022-10-24T11:46:07.455Z,98512.22
2022-10-24T11:48:50.242Z,98515.94
2022-10-24T11:51:22.407Z,98508.06
2022-10-24T11:53:57.173Z,98504.31
2022-10-24T11:56:42.298Z,98510.53
2022-10-24T11:59:24.188Z,98509.44
2022-10-24T12:01:55.711Z,98504.09
2022-10-24T12:04:34.301Z,98514.56
2022-10-24T12:07:34.690Z,98510.03
2022-10-24T12:10:38.820Z,98517.94
2022-10-24T12:13:27.056Z,98510.50
2022-10-24T12:16:08.472Z,98508.19
2022-10-24T12:18:52.304Z,98518.47
2022-10-24T12:21:26.255Z,98512.25
2022-10-24T12:23:58.952Z,98509.47
2022-10-24T12:26:31.220Z,98514.44
2022-10-24T12:29:04.274Z,98512.38
2022-10-24T12:31:37.429Z,98511.47
2022-10-24T12:34:16.323Z,98507.88
2022-10-24T12:37:19.584Z,98518.00
2022-10-24T12:39:47.912Z,98509.72
2022-10-24T12:42:17.480Z,98502.69
2022-10-24T12:44:44.992Z,98507.00
2022-10-24T12:47:36.518Z,98503.66
2022-10-24T12:50:21.630Z,98507.13
2022-10-24T12:52:48.657Z,98510.78
2022-10-24T12:55:39.391Z,98508.59
2022-10-24T12:58:29.618Z,98503.03
2022-10-24T13:01:05.629Z,98502.72
2022-10-24T13:03:38.407Z,98506.63
2022-10-24T13:06:13.347Z,98506.44
2022-10-24T13:09:17.534Z,98505.28
2022-10-24T13:12:15.062Z,98499.25
2022-10-24T13:15:03.195Z,98498.19
2022-10-24T13:17:38.510Z,98512.63
2022-10-24T13:20:19.228Z,98513.22
2022-10-24T13:22:47.738Z,98506.69
2022-10-24T13:25:41.323Z,98505.69
2022-10-24T13:28:17.095Z,98505.44
2022-10-24T13:30:46.029Z,98514.38
2022-10-24T13:33:33.706Z,98510.88
2022-10-24T13:36:09.379Z,98513.78
2022-10-24T13:39:02.869Z,98509.44
2022-10-24T13:41:33.842Z,98512.97
2022-10-24T13:44:10.281Z,98506.63
2022-10-24T13:46:59.969Z,98505.56
2022-10-24T13:49:36.963Z,98503.63
2022-10-24T13:52:15.138Z,98506.31
2022-10-24T13:54:45.993Z,98509.00
2022-10-24T13:57:37.523Z,98509.13
2022-10-24T14:00:09.008Z,98504.34
2022-10-24T14:02:41.212Z,98506.97
2022-10-24T14:05:19.443Z,98507.16
2022-10-24T14:07:47.369Z,98507.56
2022-10-24T14:10:17.123Z,98514.13
2022-10-24T14:12:44.996Z,98505.91
2022-10-24T14:15:21.507Z,98516.66
2022-10-24T14:18:14.781Z,98516.75
2022-10-24T14:20:42.753Z,98510.91
2022-10-24T14:23:41.746Z,98520.44
2022-10-24T14:26:14.718Z,98517.91
2022-10-24T14:28:58.649Z,98511.47
2022-10-24T14:31:30.987Z,98517.13
2022-10-24T14:33:58.786Z,98521.63
2022-10-24T14:36:29.049Z,98518.09
2022-10-24T14:38:58.806Z,98516.53
2022-10-24T14:41:34.270Z,98521.16
2022-10-24T14:44:01.469Z,98529.22
2022-10-24T14:46:37.494Z,98535.66
2022-10-24T14:49:22.955Z,98520.41
2022-10-24T14:54:23.414Z,98524.09
2022-10-24T14:56:52.181Z,98529.22
2022-10-24T14:59:27.212Z,98532.38
2022-10-24T15:01:59.326Z,98530.09
2022-10-24T15:04:32.207Z,98534.94
2022-10-24T15:07:14.190Z,98534.94
2022-10-24T15:10:13.161Z,98532.72
2022-10-24T15:13:08.823Z,98539.03
2022-10-24T15:15:57.922Z,98543.81
2022-10-24T15:18:31.020Z,98544.00
2022-10-24T15:21:08.118Z,98536.00
2022-10-24T15:23:37.875Z,98533.94
2022-10-24T15:26:15.278Z,98542.28
2022-10-24T15:28:53.405Z,98542.78
2022-10-24T15:31:21.363Z,98541.13
2022-10-24T15:33:48.343Z,98541.97
2022-10-24T15:36:31.389Z,98549.44
2022-10-24T15:39:07.869Z,98545.53
2022-10-24T15:41:34.655Z,98552.00
2022-10-24T15:44:01.696Z,98558.41
2022-10-24T15:46:28.841Z,98557.19
2022-10-24T15:48:55.518Z,98552.03
2022-10-24T15:51:24.368Z,98557.63
2022-10-24T15:53:52.684Z,98572.72
2022-10-24T15:56:19.565Z,98569.88
2022-10-24T16:01:24.859Z,98582.28
2022-10-24T16:03:51.623Z,98576.50
2022-10-24T16:06:18.277Z,98582.13
2022-10-24T16:08:44.982Z,98587.69
2022-10-24T16:11:12.419Z,98593.09
2022-10-24T16:13:39.466Z,98592.69
2022-10-24T16:16:07.126Z,98589.38
2022-10-24T16:18:33.930Z,98587.94
2022-10-24T16:21:01.331Z,98598.72
2022-10-24T16:23:28.468Z,98599.34
2022-10-24T16:25:55.179Z,98606.38
2022-10-24T16:28:23.937Z,98612.38
2022-10-24T16:30:50.916Z,98610.34
2022-10-24T16:33:20.105Z,98615.72
2022-10-24T16:35:50.194Z,98610.97
2022-10-24T16:38:17.140Z,98616.75
2022-10-24T16:40:46.119Z,98617.78
2022-10-24T16:43:15.821Z,98620.88
2022-10-24T16:45:43.149Z,98622.31
2022-10-24T16:48:10.120Z,98629.94
2022-10-24T16:50:40.201Z,98638.19
2022-10-24T16:53:10.348Z,98636.97
2022-10-24T16:55:37.589Z,98633.06
2022-10-24T16:58:04.512Z,98643.78
2022-10-24T17:00:31.194Z,98640.66
2022-10-24T17:02:58.601Z,98646.03
2022-10-24T17:05:27.750Z,98648.72
2022-10-24T17:07:55.234Z,98652.63
2022-10-24T17:10:24.548Z,98654.44
2022-10-24T17:12:52.362Z,98658.38
2022-10-24T17:15:22.158Z,98666.78
2022-10-24T17:17:49.971Z,98677.50
2022-10-24T17:20:17.587Z,98675.84
2022-10-24T17:22:46.760Z,98674.59
2022-10-24T17:25:27.029Z,98673.97
2022-10-24T17:27:55.466Z,98675.56
2022-10-24T17:30:26.052Z,98677.41
2022-10-24T17:32:53.786Z,98677.16
2022-10-24T17:35:23.062Z,98678.00
2022-10-24T17:38:22.716Z,98684.97
2022-10-24T17:40:50.245Z,98683.56
2022-10-24T17:43:25.985Z,98692.41
2022-10-24T17:45:55.094Z,98698.19
2022-10-24T17:48:22.568Z,98698.09
2022-10-24T17:50:49.614Z,98706.03
2022-10-24T17:53:18.348Z,98702.53
2022-10-24T17:55:47.011Z,98708.91
2022-10-24T17:58:15.415Z,98712.41
2022-10-24T18:00:43.252Z,98712.16
2022-10-24T18:03:10.275Z,98720.63
2022-10-24T18:05:38.387Z,98719.94
2022-10-24T18:08:07.801Z,98724.31
2022-10-24T18:10:37.137Z,98727.84
2022-10-24T18:13:03.894Z,98736.09
2022-10-24T18:15:30.667Z,98733.34
2022-10-24T18:17:57.443Z,98724.28
2022-10-24T18:20:24.276Z,98730.25
2022-10-24T18:22:51.201Z,98736.25
2022-10-24T18:25:22.661Z,98736.50
2022-10-24T18:27:50.645Z,98740.81
2022-10-24T18:30:19.272Z,98739.09
2022-10-24T18:32:47.116Z,98740.06
2022-10-24T18:35:15.597Z,98743.34
2022-10-24T18:37:42.427Z,98741.84
2022-10-24T18:40:10.094Z,98747.38
2022-10-24T18:42:57.603Z,98749.88
2022-10-24T18:45:27.043Z,98746.75
2022-10-24T18:47:54.424Z,98752.97
2022-10-24T18:50:24.012Z,98744.78
2022-10-24T18:53:07.439Z,98757.06
2022-10-24T18:55:35.829Z,98751.94
2022-10-24T18:58:03.033Z,98747.97
2022-10-24T19:00:32.818Z,98760.38
2022-10-24T19:03:22.882Z,98745.16
2022-10-24T19:06:03.373Z,98760.41
2022-10-24T19:08:30.251Z,98760.00
2022-10-24T19:10:57.361Z,98759.38
2022-10-24T19:13:25.567Z,98761.47
2022-10-24T19:16:00.908Z,98766.16
2022-10-24T19:18:30.508Z,98763.50
2022-10-24T19:20:57.348Z,98769.56
2022-10-24T19:23:24.823Z,98774.28
2022-10-24T19:25:51.747Z,98773.28
2022-10-24T19:28:19.755Z,98767.88
2022-10-24T19:30:47.740Z,98764.75
2022-10-24T19:33:16.416Z,98771.38
2022-10-24T19:35:47.531Z,98770.38
2022-10-24T19:38:18.098Z,98771.22
2022-10-24T19:40:53.591Z,98761.31
2022-10-24T19:43:24.997Z,98767.03
2022-10-24T19:46:07.650Z,98770.34
2022-10-24T19:48:40.991Z,98768.81
2022-10-24T19:51:11.049Z,98772.03
2022-10-24T19:53:40.593Z,98777.38
2022-10-24T19:56:10.226Z,98776.56
2022-10-24T19:58:37.726Z,98782.09
2022-10-24T20:01:10.397Z,98779.06
2022-10-24T20:03:40.805Z,98779.06
2022-10-24T20:06:08.203Z,98772.69
2022-10-24T20:08:35.754Z,98784.03
2022-10-24T20:11:02.756Z,98794.75
2022-10-24T20:13:29.710Z,98789.00
2022-10-24T20:15:58.510Z,98791.09
2022-10-24T20:18:26.749Z,98793.16
2022-10-24T20:20:53.582Z,98789.50
2022-10-24T20:23:22.130Z,98786.78
2022-10-24T20:25:50.544Z,98791.31
2022-10-24T20:28:17.244Z,98790.28
2022-10-24T20:30:46.783Z,98791.09
2022-10-24T20:33:16.973Z,98789.25
2022-10-24T20:35:44.519Z,98795.44
2022-10-24T20:38:11.595Z,98803.47
2022-10-24T20:40:38.379Z,98808.44
2022-10-24T20:43:07.077Z,98820.81
2022-10-24T20:45:34.738Z,98810.97
2022-10-24T20:48:02.015Z,98816.31
2022-10-24T20:50:28.825Z,98824.56
2022-10-24T20:52:55.521Z,98833.56
2022-10-24T20:55:39.614Z,98838.09
2022-10-24T20:58:12.883Z,98839.34
2022-10-24T21:00:42.576Z,98847.59
2022-10-24T21:03:12.250Z,98843.44
2022-10-24T21:05:39.166Z,98844.22
2022-10-24T21:08:06.577Z,98840.50
2022-10-24T21:10:33.341Z,98855.09
2022-10-24T21:13:00.000Z,98847.06
2022-10-24T21:15:26.674Z,98852.84
2022-10-24T21:17:53.280Z,98853.47
2022-10-24T21:20:20.065Z,98853.44
2022-10-24T21:22:46.725Z,98857.75
2022-10-24T21:25:13.465Z,98858.97
2022-10-24T21:27:40.161Z,98861.25
2022-10-24T21:30:10.873Z,98861.25
2022-10-24T21:32:40.366Z,98860.63
2022-10-24T21:35:07.321Z,98871.72
2022-10-24T21:37:34.220Z,98867.16
2022-10-24T21:40:00.886Z,98875.38
2022-10-24T21:42:30.631Z,98875.19
2022-10-24T21:44:57.561Z,98882.22
2022-10-24T21:47:24.330Z,98883.22
2022-10-24T21:49:51.032Z,98888.38
2022-10-24T21:52:17.790Z,98900.97
2022-10-24T21:54:44.570Z,98895.78
2022-10-24T21:57:11.339Z,98897.84
2022-10-24T21:59:38.993Z,98901.56
2022-10-24T22:02:05.954Z,98909.78
2022-10-24T22:04:32.823Z,98911.28
2022-10-24T22:06:59.575Z,98910.00
2022-10-24T22:09:26.333Z,98913.31
2022-10-24T22:11:58.140Z,98927.13
2022-10-24T22:14:24.962Z,98928.47
2022-10-24T22:16:52.086Z,98928.53
2022-10-24T22:19:18.839Z,98932.22
2022-10-24T22:21:48.469Z,98937.97
2022-10-24T22:24:20.850Z,98934.47
2022-10-24T22:26:48.465Z,98937.34
2022-10-24T22:29:17.896Z,98936.88
2022-10-24T22:31:45.824Z,98949.00
2022-10-24T22:34:18.482Z,98946.72
2022-10-24T22:37:06.005Z,98938.63
2022-10-24T22:39:33.169Z,98949.50
2022-10-24T22:42:00.999Z,98943.69
2022-10-24T22:44:27.932Z,98948.22
2022-10-24T22:47:26.644Z,98942.63
2022-10-24T22:50:30.583Z,98938.56
2022-10-24T22:53:00.346Z,98936.72
2022-10-24T22:55:37.591Z,98938.34
2022-10-24T22:58:04.642Z,98948.41
2022-10-24T23:00:31.737Z,98947.59
2022-10-24T23:03:16.128Z,98955.88
2022-10-24T23:06:00.483Z,98958.53
2022-10-24T23:08:39.215Z,98959.19
2022-10-24T23:11:06.623Z,98963.53
2022-10-24T23:13:33.609Z,98967.41
2022-10-24T23:16:08.252Z,98971.19
2022-10-24T23:18:35.230Z,98977.41
2022-10-24T23:21:26.783Z,98982.56
2022-10-24T23:23:53.457Z,98981.38
2022-10-24T23:26:29.631Z,98986.72
2022-10-24T23:29:17.325Z,98983.84
2022-10-24T23:31:44.305Z,98991.22
2022-10-24T23:34:11.333Z,98995.75
2022-10-24T23:36:43.211Z,98988.38
2022-10-24T23:39:13.018Z,98997.84
2022-10-24T23:41:40.419Z,98989.66
2022-10-24T23:44:09.456Z,99000.34
2022-10-24T23:46:38.860Z,99007.56
2022-10-24T23:49:24.189Z,99003.03
2022-10-24T23:52:01.776Z,99004.66
2022-10-24T23:54:32.373Z,99004.03
2022-10-24T23:56:59.893Z,99016.41
2022-10-24T23:59:26.505Z,99018.03
